Terminal Aerodrome Forecast
Issued by NWS

Current Version | Previous Version | Text Only | Print | Product List | Glossary Off
Versions: 1 2 3 4 5 6 7 8 9 10 11 12 13 14 15 16

000
FTUS41 KRNK 212320
TAFLWB
TAF
KLWB 212320Z 2200/2224 31005KT P6SM SCT035 SCT120
     FM220900 32006KT P6SM SCT040
     FM221400 33010KT P6SM FEW250=

USA.gov is the U.S. government's official web portal to all federal, state and local government web resources and services.